createdAt,value
2022-10-04T00:00:59.601Z,91.20
2022-10-04T00:03:29.901Z,91.30
2022-10-04T00:05:57.373Z,91.40
2022-10-04T00:08:30.989Z,91.50
2022-10-04T00:11:07.606Z,91.50
2022-10-04T00:13:31.980Z,91.50
2022-10-04T00:15:55.293Z,91.70
2022-10-04T00:18:32.923Z,91.40
2022-10-04T00:21:06.319Z,91.70
2022-10-04T00:23:45.674Z,91.40
2022-10-04T00:26:17.286Z,91.40
2022-10-04T00:28:46.641Z,91.40
2022-10-04T00:31:23.150Z,91.10
2022-10-04T00:33:50.453Z,91.30
2022-10-04T00:36:39.946Z,91.40
2022-10-04T00:39:14.412Z,91.40
2022-10-04T00:41:49.983Z,92.50
2022-10-04T00:44:22.621Z,93.10
2022-10-04T00:46:48.200Z,92.80
2022-10-04T00:49:15.156Z,92.10
2022-10-04T00:51:44.085Z,92.80
2022-10-04T00:54:12.985Z,92.50
2022-10-04T00:56:43.645Z,91.90
2022-10-04T00:59:28.793Z,91.40
2022-10-04T01:01:58.430Z,91.30
2022-10-04T01:04:43.740Z,91.40
2022-10-04T01:07:08.740Z,91.60
2022-10-04T01:09:35.577Z,91.80
2022-10-04T01:12:06.248Z,91.70
2022-10-04T01:14:42.271Z,91.40
2022-10-04T01:17:05.628Z,91.50
2022-10-04T01:19:34.284Z,91.30
2022-10-04T01:22:12.408Z,91.50
2022-10-04T01:24:38.230Z,91.70
2022-10-04T01:27:01.786Z,91.70
2022-10-04T01:29:28.458Z,91.50
2022-10-04T01:31:54.199Z,91.90
2022-10-04T01:34:20.140Z,91.90
2022-10-04T01:36:46.089Z,91.50
2022-10-04T01:39:10.292Z,91.50
2022-10-04T01:41:46.864Z,91.70
2022-10-04T01:44:20.110Z,91.60
2022-10-04T01:46:43.452Z,91.70
2022-10-04T01:49:11.623Z,91.60
2022-10-04T01:51:39.605Z,91.80
2022-10-04T01:54:10.064Z,91.50
2022-10-04T01:56:41.773Z,91.60
2022-10-04T01:59:08.092Z,91.60
2022-10-04T02:01:35.983Z,91.80
2022-10-04T02:04:05.019Z,91.60
2022-10-04T02:06:30.590Z,91.70
2022-10-04T02:08:57.679Z,91.90
2022-10-04T02:11:22.160Z,91.80
2022-10-04T02:13:48.876Z,91.80
2022-10-04T02:16:13.293Z,91.90
2022-10-04T02:18:39.452Z,91.90
2022-10-04T02:21:05.572Z,92.30
2022-10-04T02:23:30.136Z,92.60
2022-10-04T02:25:53.474Z,92.50
2022-10-04T02:28:18.829Z,92.20
2022-10-04T02:31:08.901Z,92.30
2022-10-04T02:33:31.430Z,92.30
2022-10-04T02:35:54.749Z,92.30
2022-10-04T02:38:24.833Z,92.20
2022-10-04T02:40:56.081Z,92.00
2022-10-04T02:43:24.883Z,92.20
2022-10-04T02:45:56.452Z,92.90
2022-10-04T02:48:36.721Z,92.70
2022-10-04T02:51:09.713Z,92.60
2022-10-04T02:53:46.140Z,92.30
2022-10-04T02:56:12.187Z,92.60
2022-10-04T02:58:40.062Z,92.60
2022-10-04T03:01:04.818Z,92.30
2022-10-04T03:03:31.016Z,92.50
2022-10-04T03:06:05.877Z,92.30
2022-10-04T03:08:33.178Z,92.40
2022-10-04T03:10:57.124Z,92.50
2022-10-04T03:13:21.899Z,92.40
2022-10-04T03:15:45.332Z,92.20
2022-10-04T03:18:11.006Z,92.30
2022-10-04T03:20:38.595Z,92.30
2022-10-04T03:23:02.280Z,92.00
2022-10-04T03:25:31.179Z,92.20
2022-10-04T03:27:54.656Z,92.30
2022-10-04T03:30:20.630Z,92.40
2022-10-04T03:32:44.427Z,92.40
2022-10-04T03:35:21.279Z,92.20
2022-10-04T03:37:45.396Z,92.50
2022-10-04T03:40:11.251Z,92.40
2022-10-04T03:42:37.694Z,92.30
2022-10-04T03:45:05.769Z,92.20
2022-10-04T03:47:34.119Z,92.20
2022-10-04T03:50:00.385Z,92.50
2022-10-04T03:52:29.534Z,92.20
2022-10-04T03:54:56.259Z,92.30
2022-10-04T03:57:20.282Z,92.40
2022-10-04T03:59:44.099Z,92.20
2022-10-04T04:02:15.736Z,92.10
2022-10-04T04:04:50.397Z,92.40
2022-10-04T04:07:19.844Z,92.20
2022-10-04T04:09:48.690Z,92.20
2022-10-04T04:12:18.407Z,92.30
2022-10-04T04:14:43.844Z,92.30
2022-10-04T04:17:37.536Z,92.60
2022-10-04T04:20:07.724Z,92.50
2022-10-04T04:22:33.032Z,92.40
2022-10-04T04:24:58.546Z,92.50
2022-10-04T04:27:24.825Z,92.40
2022-10-04T04:29:53.642Z,92.40
2022-10-04T04:32:23.208Z,92.30
2022-10-04T04:34:53.142Z,92.50
2022-10-04T04:37:16.531Z,92.40
2022-10-04T04:39:40.881Z,92.20
2022-10-04T04:42:13.340Z,92.10
2022-10-04T04:44:37.842Z,92.30
2022-10-04T04:47:01.287Z,92.30
2022-10-04T04:49:24.955Z,92.20
2022-10-04T04:51:52.509Z,92.40
2022-10-04T04:54:16.954Z,92.40
2022-10-04T04:56:40.305Z,92.30
2022-10-04T04:59:08.674Z,92.60
2022-10-04T05:01:37.833Z,92.40
2022-10-04T05:04:02.895Z,92.50
2022-10-04T05:06:28.542Z,92.60
2022-10-04T05:08:52.036Z,92.40
2022-10-04T05:11:17.071Z,92.60
2022-10-04T05:13:45.676Z,92.80
2022-10-04T05:16:19.322Z,92.40
2022-10-04T05:18:42.738Z,92.20
2022-10-04T05:21:13.038Z,92.20
2022-10-04T05:23:36.957Z,92.30
2022-10-04T05:26:02.358Z,92.20
2022-10-04T05:28:25.801Z,92.20
2022-10-04T05:31:06.718Z,92.20
2022-10-04T05:33:46.956Z,92.40
2022-10-04T05:36:46.154Z,92.20
2022-10-04T05:39:19.380Z,92.00
2022-10-04T05:41:53.564Z,92.10
2022-10-04T05:44:27.298Z,92.40
2022-10-04T05:46:51.206Z,92.20
2022-10-04T05:49:19.577Z,92.20
2022-10-04T05:51:51.444Z,92.50
2022-10-04T05:54:15.116Z,92.50
2022-10-04T05:57:21.802Z,92.50
2022-10-04T06:00:06.754Z,92.30
2022-10-04T06:03:09.481Z,92.30
2022-10-04T06:05:48.731Z,92.20
2022-10-04T06:08:29.333Z,92.40
2022-10-04T06:11:05.478Z,92.20
2022-10-04T06:14:26.279Z,92.20
2022-10-04T06:17:10.191Z,92.20
2022-10-04T06:20:14.361Z,92.30
2022-10-04T06:22:46.831Z,92.10
2022-10-04T06:25:19.331Z,91.90
2022-10-04T06:27:50.431Z,92.30
2022-10-04T06:30:17.433Z,92.00
2022-10-04T06:33:05.585Z,92.00
2022-10-04T06:36:00.071Z,92.10
2022-10-04T06:38:59.059Z,92.30
2022-10-04T06:42:11.791Z,92.20
2022-10-04T06:44:56.675Z,92.10
2022-10-04T06:47:47.543Z,92.10
2022-10-04T06:50:27.242Z,92.10
2022-10-04T06:53:16.527Z,91.90
2022-10-04T06:56:10.501Z,91.80
2022-10-04T06:59:13.784Z,91.80
2022-10-04T07:01:40.153Z,91.70
2022-10-04T07:04:22.514Z,91.50
2022-10-04T07:06:52.860Z,91.40
2022-10-04T07:09:23.469Z,91.30
2022-10-04T07:11:56.043Z,91.30
2022-10-04T07:14:24.818Z,91.40
2022-10-04T07:16:51.241Z,90.90
2022-10-04T07:19:32.431Z,90.80
2022-10-04T07:22:05.659Z,90.90
2022-10-04T07:24:50.274Z,91.00
2022-10-04T07:27:19.708Z,90.90
2022-10-04T07:29:46.378Z,90.70
2022-10-04T07:32:19.150Z,90.70
2022-10-04T07:34:48.179Z,91.00
2022-10-04T07:37:13.740Z,90.70
2022-10-04T07:39:47.941Z,90.50
2022-10-04T07:42:24.643Z,90.60
2022-10-04T07:45:00.969Z,90.20
2022-10-04T07:47:27.834Z,90.50
2022-10-04T07:49:53.580Z,90.50
2022-10-04T07:52:48.892Z,90.50
2022-10-04T07:55:25.101Z,90.60
2022-10-04T07:58:13.094Z,90.00
2022-10-04T08:00:49.762Z,89.90
2022-10-04T08:03:35.549Z,89.20
2022-10-04T08:06:11.798Z,89.20
2022-10-04T08:09:01.505Z,89.00
2022-10-04T08:11:39.523Z,88.90
2022-10-04T08:14:18.811Z,88.20
2022-10-04T08:16:55.697Z,88.40
2022-10-04T08:19:38.099Z,88.10
2022-10-04T08:22:05.462Z,88.30
2022-10-04T08:24:36.939Z,88.80
2022-10-04T08:27:21.954Z,87.40
2022-10-04T08:30:04.727Z,85.90
2022-10-04T08:32:46.241Z,85.60
2022-10-04T08:35:37.781Z,85.90
2022-10-04T08:38:22.214Z,87.00
2022-10-04T08:41:32.847Z,86.30
2022-10-04T08:44:30.441Z,85.30
2022-10-04T08:47:35.061Z,85.30
2022-10-04T08:50:33.443Z,84.90
2022-10-04T08:54:03.661Z,84.50
2022-10-04T08:56:54.074Z,83.30
2022-10-04T09:00:01.518Z,84.50
2022-10-04T09:03:14.172Z,83.00
2022-10-04T09:05:59.190Z,82.40
2022-10-04T09:09:14.118Z,81.00
2022-10-04T09:12:20.070Z,80.80
2022-10-04T09:15:05.716Z,81.20
2022-10-04T09:17:48.108Z,81.00
2022-10-04T09:20:39.793Z,82.10
2022-10-04T09:23:22.626Z,81.30
2022-10-04T09:26:06.902Z,80.70
2022-10-04T09:29:12.821Z,79.80
2022-10-04T09:32:21.951Z,80.40
2022-10-04T09:35:14.161Z,79.00
2022-10-04T09:37:51.886Z,78.90
2022-10-04T09:40:52.172Z,78.60
2022-10-04T09:44:18.276Z,80.90
2022-10-04T09:47:14.419Z,80.30
2022-10-04T09:50:26.789Z,77.60
2022-10-04T09:53:02.781Z,77.30
2022-10-04T09:56:07.394Z,79.90
2022-10-04T09:59:05.748Z,76.50
2022-10-04T10:01:37.466Z,75.50
2022-10-04T10:04:33.592Z,78.30
2022-10-04T10:07:37.933Z,76.00
2022-10-04T10:10:37.034Z,74.80
2022-10-04T10:13:43.948Z,75.30
2022-10-04T10:16:30.720Z,76.40
2022-10-04T10:19:15.874Z,76.20
2022-10-04T10:21:56.781Z,74.70
2022-10-04T10:24:39.479Z,74.70
2022-10-04T10:27:21.768Z,75.80
2022-10-04T10:30:23.847Z,73.80
2022-10-04T10:33:24.120Z,74.00
2022-10-04T10:36:12.977Z,74.90
2022-10-04T10:38:52.048Z,73.60
2022-10-04T10:42:03.522Z,72.70
2022-10-04T10:44:42.672Z,74.60
2022-10-04T10:47:31.580Z,72.20
2022-10-04T10:50:58.470Z,72.30
2022-10-04T10:54:11.558Z,72.20
2022-10-04T10:57:01.702Z,70.80
2022-10-04T11:00:12.784Z,71.00
2022-10-04T11:03:15.199Z,71.40
2022-10-04T11:06:16.661Z,69.80
2022-10-04T11:09:27.600Z,70.40
2022-10-04T11:12:41.302Z,69.90
2022-10-04T11:16:01.875Z,70.30
2022-10-04T11:18:59.749Z,69.20
2022-10-04T11:22:10.126Z,68.00
2022-10-04T11:25:06.106Z,69.90
2022-10-04T11:27:49.184Z,68.30
2022-10-04T11:30:26.212Z,67.00
2022-10-04T11:33:30.018Z,67.60
2022-10-04T11:36:29.151Z,68.40
2022-10-04T11:39:31.013Z,68.80
2022-10-04T11:42:00.765Z,67.30
2022-10-04T11:45:33.258Z,64.80
2022-10-04T11:48:14.317Z,62.90
2022-10-04T11:51:10.974Z,65.80
2022-10-04T11:54:13.181Z,63.10
2022-10-04T11:57:07.896Z,62.30
2022-10-04T11:59:46.764Z,62.10
2022-10-04T12:02:39.159Z,69.10
2022-10-04T12:05:24.886Z,65.00
2022-10-04T12:08:01.920Z,62.10
2022-10-04T12:10:29.634Z,62.80
2022-10-04T12:13:28.225Z,61.80
2022-10-04T12:16:29.507Z,61.20
2022-10-04T12:19:46.013Z,63.60
2022-10-04T12:22:43.706Z,62.10
2022-10-04T12:25:37.623Z,61.90
2022-10-04T12:28:26.518Z,61.20
2022-10-04T12:31:17.338Z,62.30
2022-10-04T12:33:49.636Z,61.60
2022-10-04T12:36:38.178Z,62.40
2022-10-04T12:39:24.092Z,62.20
2022-10-04T12:42:03.281Z,62.30
2022-10-04T12:44:47.208Z,62.70
2022-10-04T12:47:53.514Z,63.60
2022-10-04T12:50:36.368Z,63.60
2022-10-04T12:53:18.387Z,64.70
2022-10-04T12:55:58.642Z,61.10
2022-10-04T12:58:30.115Z,63.60
2022-10-04T13:01:02.419Z,63.40
2022-10-04T13:03:40.215Z,62.90
2022-10-04T13:06:19.577Z,62.40
2022-10-04T13:09:02.736Z,62.10
2022-10-04T13:11:53.275Z,63.60
2022-10-04T13:14:43.312Z,63.70
2022-10-04T13:17:34.044Z,63.00
2022-10-04T13:20:22.048Z,62.20
2022-10-04T13:22:57.039Z,63.20
2022-10-04T13:25:40.032Z,62.90
2022-10-04T13:28:08.700Z,64.20
2022-10-04T13:30:39.084Z,63.10
2022-10-04T13:33:24.594Z,61.80
2022-10-04T13:35:55.811Z,62.20
2022-10-04T13:38:55.592Z,63.00
2022-10-04T13:41:34.588Z,62.70
2022-10-04T13:44:35.522Z,61.60
2022-10-04T13:47:30.740Z,61.00
2022-10-04T13:50:13.720Z,60.20
2022-10-04T13:53:05.940Z,62.10
2022-10-04T13:55:57.349Z,65.30
2022-10-04T13:58:36.581Z,61.90
2022-10-04T14:01:48.741Z,58.90
2022-10-04T14:04:36.786Z,59.50
2022-10-04T14:07:35.699Z,60.80
2022-10-04T14:10:36.611Z,59.40
2022-10-04T14:13:45.301Z,58.90
2022-10-04T14:16:34.057Z,60.90
2022-10-04T14:19:42.982Z,62.70
2022-10-04T14:22:53.695Z,60.00
2022-10-04T14:26:08.687Z,61.80
2022-10-04T14:29:16.426Z,60.90
2022-10-04T14:32:25.139Z,60.50
2022-10-04T14:35:02.834Z,61.00
2022-10-04T14:37:51.034Z,59.40
2022-10-04T14:40:46.351Z,60.90
2022-10-04T14:43:55.103Z,61.20
2022-10-04T14:46:29.612Z,61.90
2022-10-04T14:49:07.979Z,61.30
2022-10-04T14:52:04.614Z,59.60
2022-10-04T14:54:43.510Z,61.20
2022-10-04T14:57:20.112Z,61.20
2022-10-04T15:00:19.211Z,63.30
2022-10-04T15:03:20.375Z,61.60
2022-10-04T15:06:26.043Z,61.20
2022-10-04T15:09:15.054Z,62.40
2022-10-04T15:12:21.647Z,62.10
2022-10-04T15:14:40.525Z,62.40
2022-10-04T15:17:11.809Z,61.80
2022-10-04T15:19:59.474Z,62.40
2022-10-04T15:22:27.311Z,62.60
2022-10-04T15:24:53.208Z,61.10
2022-10-04T15:27:51.626Z,61.90
2022-10-04T15:30:24.929Z,61.80
2022-10-04T15:33:06.373Z,62.90
2022-10-04T15:35:42.037Z,62.30
2022-10-04T15:38:20.669Z,63.40
2022-10-04T15:41:01.904Z,61.70
2022-10-04T15:43:31.544Z,63.00
2022-10-04T15:46:31.887Z,62.50
2022-10-04T15:49:14.432Z,62.60
2022-10-04T15:52:07.263Z,63.90
2022-10-04T15:54:52.094Z,64.00
2022-10-04T15:57:38.507Z,64.00
2022-10-04T16:00:13.840Z,63.80
2022-10-04T16:03:00.158Z,63.90
2022-10-04T16:05:29.562Z,64.20
2022-10-04T16:08:42.693Z,66.90
2022-10-04T16:11:31.064Z,65.50
2022-10-04T16:14:28.776Z,65.60
2022-10-04T16:17:25.768Z,66.60
2022-10-04T16:20:38.727Z,67.90
2022-10-04T16:23:28.142Z,66.50
2022-10-04T16:25:53.928Z,67.90
2022-10-04T16:29:00.617Z,68.90
2022-10-04T16:31:43.857Z,70.20
2022-10-04T16:34:29.613Z,69.40
2022-10-04T16:36:58.693Z,71.00
2022-10-04T16:40:05.800Z,71.40
2022-10-04T16:42:43.027Z,72.00
2022-10-04T16:45:42.344Z,72.90
2022-10-04T16:48:15.705Z,73.50
2022-10-04T16:51:22.636Z,74.70
2022-10-04T16:53:53.190Z,74.90
2022-10-04T16:56:19.554Z,76.10
2022-10-04T16:58:55.981Z,76.50
2022-10-04T17:02:07.251Z,76.60
2022-10-04T17:05:04.722Z,76.70
2022-10-04T17:07:54.035Z,77.20
2022-10-04T17:10:35.154Z,77.80
2022-10-04T17:13:23.253Z,78.40
2022-10-04T17:15:52.372Z,77.90
2022-10-04T17:18:31.369Z,78.70
2022-10-04T17:21:00.766Z,79.00
2022-10-04T17:23:58.233Z,79.20
2022-10-04T17:26:39.455Z,79.40
2022-10-04T17:29:24.218Z,79.80
2022-10-04T17:31:58.641Z,80.60
2022-10-04T17:34:42.254Z,80.70
2022-10-04T17:37:19.938Z,80.80
2022-10-04T17:39:48.607Z,80.40
2022-10-04T17:42:25.209Z,80.40
2022-10-04T17:45:19.148Z,81.40
2022-10-04T17:48:10.556Z,81.80
2022-10-04T17:50:57.795Z,82.00
2022-10-04T17:53:45.957Z,82.40
2022-10-04T17:56:13.340Z,82.50
2022-10-04T17:58:46.150Z,82.80
2022-10-04T18:01:15.223Z,82.90
2022-10-04T18:03:43.968Z,83.10
2022-10-04T18:06:27.073Z,83.00
2022-10-04T18:08:57.217Z,83.00
2022-10-04T18:11:30.368Z,83.00
2022-10-04T18:14:02.417Z,83.60
2022-10-04T18:16:30.975Z,83.80
2022-10-04T18:18:56.252Z,84.20
2022-10-04T18:21:28.276Z,84.00
2022-10-04T18:24:01.151Z,84.10
2022-10-04T18:26:27.072Z,84.10
2022-10-04T18:28:53.781Z,84.20
2022-10-04T18:31:31.030Z,84.00
2022-10-04T18:33:57.987Z,84.40
2022-10-04T18:36:24.700Z,84.30
2022-10-04T18:39:03.325Z,84.70
2022-10-04T18:41:46.967Z,84.80
2022-10-04T18:44:16.010Z,84.80
2022-10-04T18:46:42.021Z,84.40
2022-10-04T18:49:18.130Z,84.80
2022-10-04T18:51:52.652Z,84.70
2022-10-04T18:54:27.419Z,84.80
2022-10-04T18:57:01.912Z,84.90
2022-10-04T18:59:53.960Z,84.80
2022-10-04T19:02:27.869Z,85.00
2022-10-04T19:05:02.110Z,85.00
2022-10-04T19:07:37.523Z,84.70
2022-10-04T19:10:13.115Z,85.10
2022-10-04T19:12:53.556Z,84.80
2022-10-04T19:15:34.927Z,85.10
2022-10-04T19:18:17.874Z,84.70
2022-10-04T19:20:46.845Z,84.30
2022-10-04T19:23:27.034Z,84.80
2022-10-04T19:26:26.242Z,84.60
2022-10-04T19:28:38.647Z,84.30
2022-10-04T19:31:14.862Z,85.70
2022-10-04T19:33:47.450Z,85.20
2022-10-04T19:36:32.511Z,85.20
2022-10-04T19:39:12.499Z,85.30
2022-10-04T19:41:57.025Z,85.30
2022-10-04T19:44:46.369Z,85.30
2022-10-04T19:47:30.968Z,85.60
2022-10-04T19:50:02.273Z,85.70
2022-10-04T19:52:35.730Z,85.80
2022-10-04T19:55:21.212Z,85.70
2022-10-04T19:57:51.841Z,86.30
2022-10-04T20:00:16.793Z,86.00
2022-10-04T20:02:45.981Z,85.80
2022-10-04T20:05:15.481Z,86.20
2022-10-04T20:07:40.510Z,86.10
2022-10-04T20:10:23.826Z,86.20
2022-10-04T20:13:16.700Z,86.40
2022-10-04T20:15:49.176Z,86.70
2022-10-04T20:18:59.522Z,86.70
2022-10-04T20:21:29.704Z,86.70
2022-10-04T20:23:57.376Z,86.80
2022-10-04T20:26:54.729Z,87.10
2022-10-04T20:30:01.821Z,87.20
2022-10-04T20:32:58.949Z,87.10
2022-10-04T20:36:09.529Z,87.20
2022-10-04T20:38:52.555Z,87.30
2022-10-04T20:42:18.442Z,87.50
2022-10-04T20:44:57.060Z,87.60
2022-10-04T20:47:43.916Z,87.50
2022-10-04T20:50:17.712Z,87.70
2022-10-04T20:52:46.754Z,87.60
2022-10-04T20:55:21.635Z,87.60
2022-10-04T20:57:46.518Z,87.80
2022-10-04T21:00:21.232Z,87.90
2022-10-04T21:02:44.592Z,87.80
2022-10-04T21:05:15.269Z,87.60
2022-10-04T21:07:38.534Z,87.70
2022-10-04T21:10:16.645Z,87.30
2022-10-04T21:12:40.431Z,87.40
2022-10-04T21:15:08.525Z,87.30
2022-10-04T21:17:38.263Z,87.80
2022-10-04T21:20:01.900Z,87.60
2022-10-04T21:22:53.231Z,87.50
2022-10-04T21:25:33.427Z,87.40
2022-10-04T21:28:40.855Z,87.30
2022-10-04T21:31:05.851Z,87.40
2022-10-04T21:33:29.111Z,87.40
2022-10-04T21:35:52.967Z,87.50
2022-10-04T21:38:16.207Z,87.80
2022-10-04T21:40:39.462Z,87.50
2022-10-04T21:43:02.685Z,87.70
2022-10-04T21:45:25.993Z,87.60
2022-10-04T21:47:50.599Z,87.60
2022-10-04T21:50:13.920Z,87.70
2022-10-04T21:52:37.102Z,87.70
2022-10-04T21:55:00.373Z,87.80
2022-10-04T21:57:24.018Z,88.00
2022-10-04T21:59:47.942Z,87.90
2022-10-04T22:02:11.250Z,88.10
2022-10-04T22:04:37.965Z,88.20
2022-10-04T22:07:01.235Z,88.30
2022-10-04T22:09:24.523Z,88.00
2022-10-04T22:11:47.856Z,87.70
2022-10-04T22:14:11.195Z,88.50
2022-10-04T22:16:34.521Z,88.10
2022-10-04T22:18:57.780Z,88.00
2022-10-04T22:21:22.426Z,88.50
2022-10-04T22:23:46.255Z,88.70
2022-10-04T22:26:13.134Z,88.10
2022-10-04T22:28:39.427Z,88.30
2022-10-04T22:31:02.752Z,88.60
2022-10-04T22:33:32.815Z,88.60
2022-10-04T22:35:58.896Z,88.50
2022-10-04T22:38:23.482Z,88.60
2022-10-04T22:40:46.664Z,88.60
2022-10-04T22:43:14.952Z,88.60
2022-10-04T22:45:38.292Z,88.90
2022-10-04T22:48:12.097Z,89.20
2022-10-04T22:50:38.563Z,88.80
2022-10-04T22:53:09.603Z,88.80
2022-10-04T22:55:35.560Z,89.20
2022-10-04T22:57:58.790Z,89.10
2022-10-04T23:00:22.077Z,89.10
2022-10-04T23:02:45.505Z,88.80
2022-10-04T23:05:15.124Z,89.10
2022-10-04T23:07:38.816Z,89.20
2022-10-04T23:10:02.190Z,89.00
2022-10-04T23:12:26.811Z,89.00
2022-10-04T23:14:50.012Z,88.70
2022-10-04T23:17:23.554Z,89.30
2022-10-04T23:19:46.799Z,89.20
2022-10-04T23:22:15.987Z,89.50
2022-10-04T23:24:39.350Z,89.40
2022-10-04T23:27:03.806Z,89.40
2022-10-04T23:29:32.930Z,89.40
2022-10-04T23:31:57.899Z,89.50
2022-10-04T23:34:29.080Z,89.40
2022-10-04T23:36:53.607Z,89.50
2022-10-04T23:39:25.583Z,89.30
2022-10-04T23:41:48.808Z,89.30
2022-10-04T23:44:14.630Z,89.40
2022-10-04T23:46:39.296Z,89.20
2022-10-04T23:49:02.584Z,89.50
2022-10-04T23:51:25.969Z,89.50
2022-10-04T23:53:51.063Z,89.50
2022-10-04T23:56:20.699Z,89.90
2022-10-04T23:58:44.263Z,89.80
